Time;durP1;ratioP1;P1;durP2;ratioP2;P2;SDS_P1;SDS_P2;PMS_P1;PMS_P2;Temp;Humidity;BMP_temperature;BMP_pressure;BME280_temperature;BME280_humidity;BME280_pressure;Samples;Min_cycle;Max_cycle;Signal;HPM_P1;HPM_P2
2022/07/09 00:02:04;;;;;;;0.50;0.50;;;11.80;99.90;;;;;;5093992;28;20384;-74
2022/07/09 00:04:29;;;;;;;1.50;1.23;;;11.70;99.90;;;;;;5096049;28;20103;-74
2022/07/09 00:06:55;;;;;;;0.50;0.40;;;11.80;99.90;;;;;;5094952;28;20056;-75
2022/07/09 00:09:21;;;;;;;0.63;0.63;;;11.80;99.90;;;;;;5095692;28;20021;-75
2022/07/09 00:11:47;;;;;;;1.00;0.65;;;11.80;99.90;;;;;;5077312;28;20056;-74
2022/07/09 00:14:12;;;;;;;0.38;0.38;;;11.90;99.90;;;;;;5094434;28;20058;-75
2022/07/09 00:16:38;;;;;;;0.50;0.50;;;11.80;99.90;;;;;;5094781;28;20024;-75
2022/07/09 00:19:06;;;;;;;0.80;0.80;;;11.70;99.90;;;;;;5076752;28;20031;-74
2022/07/09 00:21:32;;;;;;;0.28;0.28;;;15.00;99.90;;;;;;5094843;28;20016;-74
2022/07/09 00:23:58;;;;;;;0.65;0.43;;;11.70;99.90;;;;;;5076177;28;20422;-74
2022/07/09 00:26:23;;;;;;;0.40;0.40;;;11.70;99.90;;;;;;5093953;28;20032;-74
2022/07/09 00:28:49;;;;;;;0.20;0.20;;;11.70;99.90;;;;;;5094251;28;20024;-75
2022/07/09 00:31:17;;;;;;;0.57;0.38;;;11.60;99.90;;;;;;5094298;28;20388;-75
2022/07/09 00:33:42;;;;;;;0.50;0.50;;;11.60;99.90;;;;;;5094402;28;20033;-74
2022/07/09 00:36:11;;;;;;;1.25;0.52;;;11.60;99.90;;;;;;5094602;28;20028;-74
2022/07/09 00:38:36;;;;;;;1.10;0.40;;;11.50;99.90;;;;;;5094457;28;20429;-75
2022/07/09 00:41:02;;;;;;;0.30;0.30;;;11.50;99.90;;;;;;5096315;28;20518;-75
2022/07/09 00:43:28;;;;;;;1.90;0.52;;;11.40;99.90;;;;;;5095332;28;20538;-75
2022/07/09 00:45:54;;;;;;;0.60;0.60;;;11.40;99.90;;;;;;5094710;28;20096;-74
2022/07/09 00:48:19;;;;;;;0.32;0.32;;;11.30;99.90;;;;;;5094796;28;20052;-75
2022/07/09 00:50:46;;;;;;;0.43;0.40;;;11.30;99.90;;;;;;5094864;28;20118;-76
2022/07/09 00:53:15;;;;;;;0.50;0.50;;;11.30;99.90;;;;;;5095148;28;20071;-76
2022/07/09 00:55:40;;;;;;;2.55;0.82;;;11.20;99.90;;;;;;5095117;28;20059;-75
2022/07/09 00:58:08;;;;;;;0.70;0.70;;;11.10;99.90;;;;;;5094438;28;20056;-76
2022/07/09 01:00:34;;;;;;;0.70;0.70;;;11.10;99.90;;;;;;5077547;28;20024;-75
2022/07/09 01:03:00;;;;;;;0.30;0.30;;;11.20;99.90;;;;;;5095627;28;20024;-75
2022/07/09 01:05:26;;;;;;;0.38;0.38;;;11.10;99.90;;;;;;5078763;28;20129;-75
2022/07/09 01:07:53;;;;;;;0.30;0.30;;;11.20;99.90;;;;;;5095640;28;20024;-75
2022/07/09 01:10:19;;;;;;;0.50;0.50;;;11.20;99.90;;;;;;5077274;28;20381;-75
2022/07/09 01:12:45;;;;;;;0.52;0.38;;;11.30;99.90;;;;;;5094919;28;20043;-75
2022/07/09 01:15:10;;;;;;;0.35;0.35;;;11.30;99.90;;;;;;5094172;28;20012;-75
2022/07/09 01:17:40;;;;;;;0.82;0.55;;;11.30;99.90;;;;;;5098314;28;20038;-76
2022/07/09 01:20:07;;;;;;;2.45;1.27;;;11.20;99.90;;;;;;5098108;28;20039;-76
2022/07/09 01:22:34;;;;;;;0.20;0.20;;;11.20;99.90;;;;;;5079663;28;20028;-76
2022/07/09 01:25:01;;;;;;;0.82;0.82;;;11.10;99.90;;;;;;5080884;28;20024;-76
2022/07/09 01:27:26;;;;;;;5.53;1.80;;;11.10;99.90;;;;;;5099472;28;20043;-75
2022/07/09 01:29:52;;;;;;;1.55;0.65;;;11.20;99.90;;;;;;5098608;28;20381;-75
2022/07/09 01:32:18;;;;;;;0.30;0.30;;;11.20;99.90;;;;;;5098233;28;20028;-75
2022/07/09 01:34:44;;;;;;;0.40;0.40;;;11.10;99.90;;;;;;5098302;28;20036;-76
2022/07/09 01:37:10;;;;;;;0.43;0.43;;;11.10;99.90;;;;;;5097897;28;20031;-76
2022/07/09 01:39:49;;;;;;;0.40;0.40;;;11.00;99.90;;;;;;5097728;28;20020;-76
2022/07/09 01:42:16;;;;;;;;;;;11.10;99.90;;;;;;5098465;28;20067;-76
2022/07/09 01:44:41;;;;;;;0.38;0.38;;;11.10;99.90;;;;;;5080209;28;19930;-79
2022/07/09 01:47:07;;;;;;;0.47;0.47;;;11.00;99.90;;;;;;5098181;28;20016;-77
2022/07/09 01:49:33;;;;;;;0.30;0.30;;;10.90;99.90;;;;;;5097807;28;20052;-77
2022/07/09 01:51:59;;;;;;;0.90;0.90;;;10.90;99.90;;;;;;5096666;28;20052;-76
2022/07/09 01:54:25;;;;;;;1.30;0.88;;;10.90;99.90;;;;;;5097099;28;20024;-76
2022/07/09 01:56:51;;;;;;;3.05;0.60;;;10.90;99.90;;;;;;5097579;28;20024;-76
2022/07/09 01:59:16;;;;;;;0.50;0.50;;;10.80;99.90;;;;;;5097545;28;20043;-76
2022/07/09 02:01:42;;;;;;;0.45;0.45;;;10.70;99.90;;;;;;5097098;28;20024;-75
2022/07/09 02:04:09;;;;;;;0.57;0.57;;;10.70;99.90;;;;;;5099220;28;20017;-75
2022/07/09 02:06:35;;;;;;;0.73;0.65;;;10.70;99.90;;;;;;5097320;28;20054;-75
2022/07/09 02:09:00;;;;;;;1.33;1.25;;;10.60;99.90;;;;;;5079642;28;20020;-75
2022/07/09 02:11:26;;;;;;;0.77;0.50;;;10.60;99.90;;;;;;5097894;28;20027;-76
2022/07/09 02:13:52;;;;;;;0.40;0.40;;;10.60;99.90;;;;;;5097207;28;20384;-76
2022/07/09 02:16:18;;;;;;;0.38;0.38;;;10.60;99.90;;;;;;5079433;28;20469;-76
2022/07/09 02:18:44;;;;;;;0.63;0.63;;;10.60;99.90;;;;;;5097655;28;20024;-75
2022/07/09 02:21:11;;;;;;;0.40;0.40;;;;;;;;;;5097979;28;20016;-75
2022/07/09 02:23:37;;;;;;;0.85;0.60;;;10.50;99.90;;;;;;5097005;28;20020;-75
2022/07/09 02:26:02;;;;;;;0.40;0.40;;;10.40;99.90;;;;;;5077783;28;20092;-75
2022/07/09 02:28:28;;;;;;;2.15;1.25;;;10.40;99.90;;;;;;5077635;28;20534;-75
2022/07/09 02:30:54;;;;;;;0.75;0.75;;;10.40;99.90;;;;;;5098462;28;20027;-74
2022/07/09 02:33:21;;;;;;;0.55;0.35;;;10.40;99.90;;;;;;5098054;28;20106;-75
2022/07/09 02:35:46;;;;;;;1.20;1.10;;;10.40;99.90;;;;;;5100112;28;20020;-75
2022/07/09 02:38:12;;;;;;;0.57;0.57;;;10.40;99.90;;;;;;5082164;28;20028;-75
2022/07/09 02:40:37;;;;;;;0.40;0.40;;;10.40;99.90;;;;;;5098484;28;20059;-75
2022/07/09 02:43:03;;;;;;;0.85;0.85;;;10.40;99.90;;;;;;5096406;28;20476;-75
2022/07/09 02:45:29;;;;;;;0.90;0.90;;;10.30;99.90;;;;;;5096126;28;20036;-75
2022/07/09 02:47:54;;;;;;;0.60;0.60;;;10.20;99.90;;;;;;5096995;28;20020;-75
2022/07/09 02:50:20;;;;;;;0.45;0.45;;;10.20;99.90;;;;;;5096093;28;20530;-75
2022/07/09 02:52:46;;;;;;;0.50;0.50;;;10.20;99.90;;;;;;5074366;28;20401;-75
2022/07/09 02:55:11;;;;;;;0.43;0.43;;;10.20;99.90;;;;;;5075493;28;20028;-75
2022/07/09 02:57:37;;;;;;;0.50;0.50;;;10.20;99.90;;;;;;5075924;28;20496;-76
2022/07/09 03:00:03;;;;;;;2.38;0.52;;;10.20;99.90;;;;;;5076092;28;20032;-76
2022/07/09 03:02:29;;;;;;;1.40;1.00;;;10.20;99.90;;;;;;5074557;28;20499;-75
2022/07/09 03:04:55;;;;;;;1.23;1.17;;;10.20;99.90;;;;;;5075298;28;20028;-75
2022/07/09 03:07:20;;;;;;;0.30;0.30;;;10.10;99.90;;;;;;5075573;28;20013;-76
2022/07/09 03:09:46;;;;;;;3.50;1.20;;;10.10;99.90;;;;;;5075584;28;20060;-75
2022/07/09 03:12:12;;;;;;;1.45;0.82;;;10.10;99.90;;;;;;5073635;28;20078;-75
2022/07/09 03:14:38;;;;;;;0.65;0.60;;;10.00;99.90;;;;;;5074520;28;20029;-75
2022/07/09 03:17:04;;;;;;;0.63;0.55;;;10.00;99.90;;;;;;5074914;28;20021;-76
2022/07/09 03:19:30;;;;;;;1.35;0.60;;;;;;;;;;5075719;28;20028;-76
2022/07/09 03:21:56;;;;;;;0.98;0.65;;;10.00;99.90;;;;;;5074468;28;20012;-76
2022/07/09 03:24:21;;;;;;;1.13;0.88;;;10.00;99.90;;;;;;5073628;28;20043;-75
2022/07/09 03:26:47;;;;;;;0.90;0.50;;;9.90;99.90;;;;;;5075229;28;20044;-75
2022/07/09 03:29:13;;;;;;;0.80;0.73;;;9.90;99.90;;;;;;5073800;28;20035;-75
2022/07/09 03:31:38;;;;;;;0.57;0.57;;;9.90;99.90;;;;;;5075620;28;20031;-75
2022/07/09 03:34:05;;;;;;;0.82;0.70;;;9.90;99.90;;;;;;5074857;28;20041;-76
2022/07/09 03:36:32;;;;;;;1.23;1.13;;;9.90;99.90;;;;;;5075367;28;20465;-76
2022/07/09 03:38:58;;;;;;;0.47;0.47;;;9.80;99.90;;;;;;5074841;28;20043;-75
2022/07/09 03:41:24;;;;;;;1.25;1.20;;;9.80;99.90;;;;;;5074273;28;20016;-75
2022/07/09 03:43:50;;;;;;;1.27;1.17;;;9.80;99.90;;;;;;5074760;28;20078;-76
2022/07/09 03:46:16;;;;;;;0.90;0.90;;;9.70;99.90;;;;;;5074380;28;20020;-76
2022/07/09 03:48:41;;;;;;;1.63;0.52;;;9.70;99.90;;;;;;5074960;28;20017;-75
2022/07/09 03:51:07;;;;;;;1.13;0.98;;;9.70;99.90;;;;;;5076848;28;20133;-75
2022/07/09 03:53:33;;;;;;;2.90;0.60;;;9.80;99.90;;;;;;5094609;28;20047;-75
2022/07/09 03:55:59;;;;;;;1.08;0.40;;;9.80;99.90;;;;;;5094388;28;20074;-75
2022/07/09 03:58:24;;;;;;;1.05;0.98;;;9.80;99.90;;;;;;5076857;28;20031;-75
2022/07/09 04:00:52;;;;;;;5.82;1.30;;;9.90;99.90;;;;;;5076162;28;20016;-75
2022/07/09 04:03:19;;;;;;;0.55;0.55;;;9.90;99.90;;;;;;5076551;28;20094;-75
2022/07/09 04:05:45;;;;;;;0.65;0.63;;;9.90;99.90;;;;;;5076921;28;20056;-76
2022/07/09 04:08:11;;;;;;;0.52;0.40;;;9.90;99.90;;;;;;5077246;28;20060;-75
2022/07/09 04:10:36;;;;;;;0.40;0.40;;;10.00;99.90;;;;;;5095258;28;20030;-75
2022/07/09 04:13:02;;;;;;;3.38;0.93;;;10.10;99.90;;;;;;5095090;28;20102;-75
2022/07/09 04:15:28;;;;;;;3.45;1.58;;;10.30;99.90;;;;;;5095329;28;20048;-75
2022/07/09 04:17:53;;;;;;;0.35;0.35;;;10.30;99.90;;;;;;5095215;28;20028;-75
2022/07/09 04:20:19;;;;;;;1.95;1.05;;;10.30;99.90;;;;;;5077123;28;20086;-75
2022/07/09 04:22:45;;;;;;;0.52;0.52;;;10.30;99.90;;;;;;5095818;28;20073;-75
2022/07/09 04:25:10;;;;;;;0.50;0.50;;;10.30;99.90;;;;;;5077548;28;20025;-76
2022/07/09 04:27:38;;;;;;;0.57;0.57;;;10.40;99.90;;;;;;5077334;28;20534;-74
2022/07/09 04:30:06;;;;;;;0.45;0.32;;;10.40;99.90;;;;;;5095244;28;20044;-76
2022/07/09 04:32:32;;;;;;;0.45;0.45;;;10.40;99.90;;;;;;5094970;28;20031;-75
2022/07/09 04:34:57;;;;;;;1.20;0.90;;;10.50;99.90;;;;;;5094806;28;20028;-75
2022/07/09 04:37:23;;;;;;;1.15;0.43;;;10.50;99.90;;;;;;5094726;28;20024;-75
2022/07/09 04:39:48;;;;;;;0.30;0.30;;;10.60;99.90;;;;;;5094720;28;20377;-75
2022/07/09 04:42:15;;;;;;;0.63;0.63;;;10.60;99.90;;;;;;5094158;28;20017;-76
2022/07/09 04:44:42;;;;;;;2.53;0.60;;;10.70;99.90;;;;;;5095144;28;20026;-75
2022/07/09 04:47:08;;;;;;;0.40;0.40;;;10.80;99.90;;;;;;5095936;28;20048;-75
2022/07/09 04:49:33;;;;;;;1.52;0.80;;;10.90;99.90;;;;;;5079011;28;20055;-75
2022/07/09 04:51:59;;;;;;;0.93;0.93;;;11.40;99.90;;;;;;5080386;28;20484;-75
2022/07/09 04:54:24;;;;;;;2.60;1.30;;;11.70;99.90;;;;;;5100103;28;20020;-75
2022/07/09 04:56:50;;;;;;;0.85;0.85;;;12.30;99.90;;;;;;5080730;28;20031;-75
2022/07/09 04:59:16;;;;;;;1.10;0.38;;;13.40;99.90;;;;;;5096335;28;20048;-76
2022/07/09 05:01:42;;;;;;;2.08;1.08;;;13.40;99.90;;;;;;5078112;28;20016;-75
2022/07/09 05:04:08;;;;;;;1.30;0.47;;;13.50;99.90;;;;;;5078323;28;20047;-75
2022/07/09 05:06:33;;;;;;;0.40;0.40;;;13.50;99.90;;;;;;5078343;28;20027;-76
2022/07/09 05:08:59;;;;;;;0.30;0.30;;;13.50;99.90;;;;;;5096401;28;20051;-76
2022/07/09 05:11:25;;;;;;;0.30;0.30;;;13.30;99.90;;;;;;5078266;28;20074;-76
2022/07/09 05:13:51;;;;;;;0.28;0.28;;;13.20;99.90;;;;;;5077926;28;20032;-76
2022/07/09 05:16:16;;;;;;;9.80;1.13;;;13.20;99.90;;;;;;5096020;28;20483;-75
2022/07/09 05:18:42;;;;;;;0.45;0.45;;;13.10;99.90;;;;;;5096205;28;20020;-76
2022/07/09 05:21:08;;;;;;;0.30;0.30;;;13.00;99.90;;;;;;5095810;28;20381;-76
2022/07/09 05:23:34;;;;;;;1.13;0.50;;;12.90;99.90;;;;;;5095944;28;20059;-76
2022/07/09 05:26:00;;;;;;;0.93;0.88;;;12.90;99.90;;;;;;5096003;28;20032;-76
2022/07/09 05:28:26;;;;;;;0.32;0.32;;;12.90;99.90;;;;;;5077729;28;20016;-75
2022/07/09 05:30:51;;;;;;;0.43;0.43;;;13.00;99.90;;;;;;5077721;28;20093;-75
2022/07/09 05:33:19;;;;;;;0.75;0.75;;;13.00;99.90;;;;;;5095805;28;20036;-75
2022/07/09 05:35:44;;;;;;;1.65;0.50;;;13.10;99.90;;;;;;5077530;28;20551;-75
2022/07/09 05:38:10;;;;;;;0.77;0.70;;;13.10;99.90;;;;;;5095794;28;20055;-75
2022/07/09 05:40:36;;;;;;;2.05;0.40;;;13.30;99.90;;;;;;5096116;28;20027;-76
2022/07/09 05:43:01;;;;;;;0.70;0.70;;;13.40;99.90;;;;;;5077258;28;20498;-74
2022/07/09 05:45:27;;;;;;;0.70;0.43;;;13.50;99.90;;;;;;5095750;28;20020;-75
2022/07/09 05:47:53;;;;;;;0.30;0.30;;;13.70;99.90;;;;;;5095577;28;20028;-75
2022/07/09 05:50:19;;;;;;;0.45;0.45;;;13.90;99.90;;;;;;5095423;28;20099;-75
2022/07/09 05:52:46;;;;;;;1.02;0.98;;;14.10;99.90;;;;;;5095095;28;20048;-74
2022/07/09 05:55:12;;;;;;;0.60;0.60;;;14.20;99.90;;;;;;5077247;28;20093;-75
2022/07/09 05:57:37;;;;;;;0.85;0.85;;;14.40;99.90;;;;;;5095434;28;20407;-74
2022/07/09 06:00:04;;;;;;;0.80;0.80;;;14.50;99.90;;;;;;5095268;28;20047;-75
2022/07/09 06:02:30;;;;;;;1.45;0.82;;;14.70;99.90;;;;;;5094838;28;20451;-74
2022/07/09 06:04:56;;;;;;;0.38;0.38;;;14.80;99.90;;;;;;5095305;28;20377;-74
2022/07/09 06:07:22;;;;;;;0.77;0.70;;;15.10;99.90;;;;;;5095294;28;20024;-74
2022/07/09 06:09:47;;;;;;;0.28;0.28;;;15.20;99.90;;;;;;5095010;28;20526;-74
2022/07/09 06:12:13;;;;;;;0.43;0.43;;;15.30;99.90;;;;;;5094926;28;20469;-74
2022/07/09 06:14:39;;;;;;;2.53;0.40;;;15.60;99.90;;;;;;5095091;28;20032;-74
2022/07/09 06:17:07;;;;;;;3.20;0.40;;;15.70;99.90;;;;;;5094992;28;20024;-75
2022/07/09 06:19:36;;;;;;;0.73;0.73;;;15.90;99.90;;;;;;5095130;28;20028;-75
2022/07/09 06:22:03;;;;;;;3.33;0.40;;;16.10;99.90;;;;;;5076887;28;20031;-75
2022/07/09 06:24:32;;;;;;;0.50;0.50;;;16.30;99.90;;;;;;5094950;28;20396;-75
2022/07/09 06:26:58;;;;;;;0.68;0.68;;;16.60;99.90;;;;;;5076586;28;20016;-75
2022/07/09 06:29:23;;;;;;;1.75;0.47;;;17.00;99.90;;;;;;5094295;28;20515;-76
2022/07/09 06:31:49;;;;;;;1.33;1.23;;;17.20;99.90;;;;;;5094460;28;20084;-75
2022/07/09 06:34:15;;;;;;;5.32;0.50;;;17.20;99.90;;;;;;5094449;28;20455;-76
2022/07/09 06:36:44;;;;;;;0.47;0.47;;;17.30;99.90;;;;;;5094760;28;20020;-75
2022/07/09 06:41:54;;;;;;;0.63;0.63;;;17.50;99.90;;;;;;5094616;28;20144;-75
2022/07/09 06:44:19;;;;;;;2.50;0.90;;;18.50;99.90;;;;;;5094285;28;20059;-76
2022/07/09 06:46:45;;;;;;;0.30;0.30;;;19.90;99.90;;;;;;5094403;28;20028;-77
2022/07/09 06:49:11;;;;;;;0.55;0.55;;;21.50;99.90;;;;;;5094343;28;20027;-75
2022/07/09 06:51:37;;;;;;;0.57;0.28;;;22.90;85.90;;;;;;5094275;28;20057;-72
2022/07/09 06:54:02;;;;;;;0.30;0.30;;;24.30;67.40;;;;;;5094258;28;20426;-76
2022/07/09 06:56:28;;;;;;;0.55;0.50;;;25.80;59.20;;;;;;5094027;28;20081;-75
2022/07/09 06:58:53;;;;;;;0.20;0.20;;;26.20;54.50;;;;;;5094261;28;20085;-76
2022/07/09 07:01:19;;;;;;;0.20;0.20;;;26.80;54.90;;;;;;5075851;28;20024;-75
2022/07/09 07:03:45;;;;;;;0.30;0.30;;;27.20;53.60;;;;;;5094131;28;20502;-76
2022/07/09 07:06:10;;;;;;;0.32;0.10;;;27.80;52.80;;;;;;5094044;28;20028;-75
2022/07/09 07:08:36;;;;;;;0.32;0.32;;;28.50;52.20;;;;;;5094007;28;20024;-75
2022/07/09 07:11:02;;;;;;;0.30;0.30;;;29.20;50.90;;;;;;5094149;28;20107;-75
2022/07/09 07:13:28;;;;;;;0.20;0.20;;;29.30;48.10;;;;;;5093152;28;20028;-75
2022/07/09 07:15:53;;;;;;;0.22;0.22;;;29.60;47.10;;;;;;5094002;28;20080;-75
2022/07/09 07:18:19;;;;;;;0.95;0.63;;;29.90;47.10;;;;;;5075348;28;20473;-76
2022/07/09 07:20:45;;;;;;;1.88;0.30;;;;;;;;;;5093842;28;20060;-79
2022/07/09 07:23:11;;;;;;;0.90;0.30;;;29.40;46.00;;;;;;5075729;28;20111;-77
2022/07/09 07:25:36;;;;;;;0.17;0.17;;;29.80;48.30;;;;;;5093681;28;20047;-77
2022/07/09 07:28:03;;;;;;;0.45;0.45;;;29.90;49.00;;;;;;5094232;28;20016;-75
2022/07/09 07:30:32;;;;;;;1.55;0.35;;;30.20;48.20;;;;;;5095301;28;20020;-76
2022/07/09 07:32:59;;;;;;;1.95;0.43;;;29.70;46.20;;;;;;5082073;28;20044;-75
2022/07/09 07:35:24;;;;;;;0.43;0.43;;;28.60;47.20;;;;;;5097654;28;20461;-75
2022/07/09 07:37:50;;;;;;;2.85;1.13;;;28.60;49.60;;;;;;5093632;28;20030;-76
2022/07/09 07:40:17;;;;;;;2.63;1.33;;;28.40;49.30;;;;;;5075249;28;20019;-75
2022/07/09 07:42:43;;;;;;;0.70;0.20;;;28.40;48.70;;;;;;5075070;28;20510;-76
2022/07/09 07:45:09;;;;;;;0.25;0.25;;;27.70;48.70;;;;;;5075213;28;20024;-75
2022/07/09 07:47:35;;;;;;;0.10;0.10;;;28.10;50.80;;;;;;5092887;28;20049;-73
2022/07/09 07:50:00;;;;;;;0.20;0.20;;;27.70;48.80;;;;;;5093030;28;20439;-74
2022/07/09 07:52:26;;;;;;;0.20;0.20;;;26.10;52.20;;;;;;5075025;28;20056;-74
2022/07/09 07:54:52;;;;;;;1.23;0.40;;;25.70;52.90;;;;;;5093265;28;20491;-74
2022/07/09 07:57:17;;;;;;;0.40;0.30;;;25.80;53.80;;;;;;5093249;28;20020;-75
2022/07/09 07:59:43;;;;;;;3.03;1.20;;;25.60;52.30;;;;;;5093211;28;20464;-74
2022/07/09 08:02:09;;;;;;;0.30;0.30;;;25.60;52.50;;;;;;5093205;28;20488;-75
2022/07/09 08:04:34;;;;;;;0.15;0.15;;;26.00;53.60;;;;;;5093186;28;20024;-74
2022/07/09 08:07:00;;;;;;;0.45;0.45;;;26.50;53.20;;;;;;5093214;28;20375;-74
2022/07/09 08:09:26;;;;;;;0.32;0.30;;;26.70;51.50;;;;;;5075053;28;20031;-74
2022/07/09 08:11:52;;;;;;;0.20;0.20;;;26.70;53.80;;;;;;5075119;28;20020;-75
2022/07/09 08:14:17;;;;;;;0.50;0.50;;;26.60;52.80;;;;;;5092903;28;20394;-74
2022/07/09 08:16:43;;;;;;;0.52;0.45;;;27.00;53.50;;;;;;5074897;28;20479;-74
2022/07/09 08:19:09;;;;;;;1.08;0.43;;;26.70;51.40;;;;;;5074686;28;20252;-75
2022/07/09 08:21:34;;;;;;;0.73;0.40;;;26.30;52.80;;;;;;5093000;28;20035;-74
2022/07/09 08:24:04;;;;;;;0.32;0.32;;;25.90;52.50;;;;;;5093055;28;20103;-74
2022/07/09 08:26:29;;;;;;;0.15;0.15;;;25.80;52.60;;;;;;5096673;28;20039;-71
2022/07/09 08:28:56;;;;;;;0.10;0.10;;;25.80;53.90;;;;;;5097186;28;20032;-74
2022/07/09 08:31:22;;;;;;;0.40;0.35;;;25.60;53.00;;;;;;5097125;28;20124;-78
2022/07/09 08:33:48;;;;;;;0.47;0.47;;;25.60;53.70;;;;;;5078591;28;20369;-74
2022/07/09 08:36:14;;;;;;;5.18;0.30;;;25.90;52.80;;;;;;5078708;28;20043;-74
2022/07/09 08:38:40;;;;;;;0.30;0.30;;;25.90;54.10;;;;;;5078735;28;20031;-75
2022/07/09 08:41:06;;;;;;;3.22;1.75;;;25.60;53.60;;;;;;5096959;28;20020;-74
2022/07/09 08:43:33;;;;;;;1.73;1.15;;;25.30;53.50;;;;;;5096955;28;20415;-75
2022/07/09 08:46:00;;;;;;;0.52;0.40;;;25.90;56.40;;;;;;5096793;28;20207;-74
2022/07/09 08:48:25;;;;;;;0.30;0.30;;;26.00;56.20;;;;;;5096687;28;20024;-74
2022/07/09 08:50:52;;;;;;;0.17;0.17;;;27.10;53.10;;;;;;5096765;28;20020;-74
2022/07/09 08:53:18;;;;;;;0.70;0.70;;;28.20;51.30;;;;;;5096473;28;20526;-74
2022/07/09 08:55:45;;;;;;;0.82;0.82;;;28.60;49.70;;;;;;5096659;28;20027;-74
2022/07/09 08:58:14;;;;;;;3.53;0.73;;;28.00;50.10;;;;;;5096629;28;20472;-74
2022/07/09 09:00:41;;;;;;;0.10;0.10;;;26.70;51.90;;;;;;5096602;28;20103;-74
2022/07/09 09:03:07;;;;;;;0.50;0.50;;;26.80;52.80;;;;;;5078416;28;20426;-74
2022/07/09 09:05:33;;;;;;;0.40;0.40;;;26.30;52.00;;;;;;5096715;28;20437;-74
2022/07/09 09:07:59;;;;;;;0.40;0.40;;;26.40;51.70;;;;;;5078245;28;20062;-73
2022/07/09 09:10:27;;;;;;;0.10;0.10;;;25.90;54.10;;;;;;5078062;28;20027;-74
2022/07/09 09:12:57;;;;;;;2.45;1.30;;;25.50;51.00;;;;;;5078087;28;20142;-76
2022/07/09 09:15:23;;;;;;;1.27;0.40;;;25.30;52.80;;;;;;5078088;28;20020;-74
2022/07/09 09:17:49;;;;;;;0.13;0.13;;;25.10;53.50;;;;;;5077921;28;20031;-74
2022/07/09 09:20:16;;;;;;;0.90;0.65;;;25.70;52.40;;;;;;5077907;28;20027;-74
2022/07/09 09:22:49;;;;;;;0.57;0.45;;;25.90;53.10;;;;;;5077960;28;20388;-74
2022/07/09 09:25:17;;;;;;;0.22;0.22;;;26.00;53.10;;;;;;5095866;28;20028;-74
2022/07/09 09:27:53;;;;;;;1.35;0.43;;;26.90;52.30;;;;;;5077688;28;20024;-74
2022/07/09 09:30:19;;;;;;;0.20;0.20;;;27.60;50.80;;;;;;5095875;28;20024;-74
2022/07/09 09:32:44;;;;;;;0.17;0.17;;;28.00;51.70;;;;;;5095488;28;20056;-74
2022/07/09 09:35:10;;;;;;;0.22;0.22;;;28.40;49.90;;;;;;5095888;28;20125;-74
2022/07/09 09:37:36;;;;;;;0.10;0.10;;;27.20;49.60;;;;;;5095087;28;20028;-74
2022/07/09 09:40:11;;;;;;;0.17;0.17;;;26.40;52.40;;;;;;5077362;28;20063;-74
2022/07/09 09:42:42;;;;;;;0.70;0.70;;;26.50;53.30;;;;;;5095890;28;20020;-74
2022/07/09 09:45:08;;;;;;;0.10;0.10;;;26.70;52.20;;;;;;5095650;28;20020;-74
2022/07/09 09:47:34;;;;;;;2.72;0.40;;;26.80;53.10;;;;;;5095520;28;20105;-74
2022/07/09 09:50:01;;;;;;;0.40;0.40;;;27.10;51.00;;;;;;5077431;28;20025;-75
2022/07/09 09:52:27;;;;;;;1.45;0.40;;;26.80;50.10;;;;;;5095144;28;20048;-74
2022/07/09 09:54:54;;;;;;;0.30;0.30;;;27.00;51.40;;;;;;5095444;28;20016;-74
2022/07/09 09:57:24;;;;;;;0.30;0.30;;;27.40;50.70;;;;;;5095466;28;20492;-75
2022/07/09 09:59:52;;;;;;;0.28;0.28;;;27.30;52.10;;;;;;5095462;28;20024;-74
2022/07/09 10:02:20;;;;;;;2.08;1.30;;;27.30;51.80;;;;;;5095269;28;20469;-74
2022/07/09 10:04:46;;;;;;;1.95;1.20;;;27.00;50.70;;;;;;5095074;28;20044;-74
2022/07/09 10:07:14;;;;;;;0.22;0.22;;;27.40;52.30;;;;;;5095111;28;20058;-74
2022/07/09 10:09:39;;;;;;;0.40;0.40;;;27.70;51.30;;;;;;5095067;28;20024;-74
2022/07/09 10:12:09;;;;;;;1.55;0.55;;;28.10;52.30;;;;;;5095285;28;20191;-74
2022/07/09 10:14:36;;;;;;;1.45;0.47;;;28.10;50.40;;;;;;5095153;28;20034;-74
2022/07/09 10:17:11;;;;;;;1.90;1.20;;;27.50;51.70;;;;;;5098377;28;20016;-74
2022/07/09 10:19:37;;;;;;;0.70;0.47;;;27.30;52.10;;;;;;5097959;28;20101;-75
2022/07/09 10:22:03;;;;;;;1.35;0.40;;;26.40;52.80;;;;;;5078258;28;20031;-74
2022/07/09 10:24:30;;;;;;;0.22;0.22;;;26.20;52.60;;;;;;5076431;28;20472;-74
2022/07/09 10:27:10;;;;;;;0.47;0.43;;;26.20;52.60;;;;;;5095984;28;20024;-74
2022/07/09 10:29:51;;;;;;;0.90;0.90;;;26.10;53.80;;;;;;5076694;28;20479;-74
2022/07/09 10:32:45;;;;;;;0.50;0.50;;;26.20;54.20;;;;;;5076629;28;20024;-75
2022/07/09 10:35:10;;;;;;;0.40;0.40;;;25.70;53.00;;;;;;5091495;28;20036;-74
2022/07/09 10:37:45;;;;;;;1.13;0.80;;;25.70;54.30;;;;;;5094667;28;20073;-78
2022/07/09 10:40:13;;;;;;;0.85;0.85;;;25.70;53.10;;;;;;5094455;28;20050;-75
2022/07/09 10:42:44;;;;;;;0.77;0.40;;;25.60;54.40;;;;;;5094370;28;20020;-76
2022/07/09 10:45:21;;;;;;;0.30;0.30;;;26.20;55.20;;;;;;5076300;28;20083;-75
2022/07/09 10:47:56;;;;;;;0.50;0.40;;;26.60;55.00;;;;;;5076291;28;20020;-75
2022/07/09 10:50:22;;;;;;;0.68;0.50;;;26.20;52.30;;;;;;5076260;28;20111;-75
2022/07/09 10:52:49;;;;;;;0.70;0.43;;;26.00;53.80;;;;;;5094136;28;20126;-75
2022/07/09 10:55:23;;;;;;;0.55;0.20;;;26.40;55.30;;;;;;5076070;28;20027;-75
2022/07/09 10:57:49;;;;;;;0.40;0.40;;;26.80;52.60;;;;;;5094145;28;20020;-75
2022/07/09 11:00:17;;;;;;;1.65;0.32;;;27.20;51.90;;;;;;5094200;28;20024;-74
2022/07/09 11:03:02;;;;;;;0.25;0.25;;;27.20;52.10;;;;;;5075725;28;20024;-74
2022/07/09 11:05:29;;;;;;;2.17;0.52;;;27.40;51.70;;;;;;5094157;28;20035;-74
2022/07/09 11:07:57;;;;;;;0.38;0.38;;;27.70;50.70;;;;;;5094018;28;20039;-74
2022/07/09 11:10:22;;;;;;;0.40;0.40;;;27.20;51.70;;;;;;5094140;28;20422;-76
2022/07/09 11:12:48;;;;;;;2.15;0.30;;;27.00;52.00;;;;;;5093818;28;20105;-74
2022/07/09 11:15:19;;;;;;;0.47;0.35;;;27.60;51.90;;;;;;5075733;28;20491;-74
2022/07/09 11:17:57;;;;;;;0.10;0.10;;;27.90;50.90;;;;;;5075509;28;20029;-74
2022/07/09 11:20:23;;;;;;;0.30;0.30;;;28.20;51.30;;;;;;5075450;28;20102;-75
2022/07/09 11:22:49;;;;;;;0.30;0.30;;;28.20;50.50;;;;;;5093810;28;20421;-75
2022/07/09 11:25:16;;;;;;;0.38;0.38;;;28.30;49.20;;;;;;5093820;28;20024;-75
2022/07/09 11:27:42;;;;;;;0.80;0.80;;;28.60;52.30;;;;;;5093788;28;20020;-76
2022/07/09 11:30:13;;;;;;;0.90;0.43;;;29.10;49.60;;;;;;5075535;28;20107;-75
2022/07/09 11:32:38;;;;;;;0.98;0.95;;;29.10;48.70;;;;;;5093582;28;20024;-74
2022/07/09 11:35:04;;;;;;;0.10;0.10;;;29.20;48.40;;;;;;5093440;28;20022;-76
2022/07/09 11:37:30;;;;;;;0.17;0.17;;;28.70;50.70;;;;;;5075292;28;20023;-74
2022/07/09 11:39:56;;;;;;;0.43;0.40;;;28.40;50.80;;;;;;5093431;28;20405;-74
2022/07/09 11:42:22;;;;;;;0.40;0.40;;;28.30;51.00;;;;;;5093722;28;20386;-74
2022/07/09 11:44:59;;;;;;;0.40;0.35;;;28.20;51.00;;;;;;5093504;28;20069;-75
2022/07/09 11:47:35;;;;;;;0.35;0.35;;;28.30;50.20;;;;;;5093505;28;20028;-75
2022/07/09 11:50:19;;;;;;;0.20;0.20;;;28.70;52.80;;;;;;5093291;28;20064;-75
2022/07/09 11:52:47;;;;;;;0.70;0.70;;;29.40;51.30;;;;;;5092739;28;20445;-75
2022/07/09 11:55:16;;;;;;;0.20;0.20;;;29.50;48.70;;;;;;5093452;28;20357;-75
2022/07/09 11:57:50;;;;;;;;;;;29.50;49.40;;;;;;5075540;28;20400;-74
2022/07/09 12:00:23;;;;;;;0.30;0.30;;;29.80;50.00;;;;;;5093064;28;20014;-76
2022/07/09 12:02:50;;;;;;;0.35;0.35;;;29.40;50.80;;;;;;5093188;28;20353;-75
2022/07/09 12:05:29;;;;;;;0.40;0.30;;;29.50;49.00;;;;;;5093314;28;20020;-74
2022/07/09 12:07:55;;;;;;;0.40;0.30;;;29.00;49.60;;;;;;5093170;28;20020;-74
2022/07/09 12:10:32;;;;;;;0.25;0.10;;;28.90;50.20;;;;;;5093093;28;20103;-74
2022/07/09 12:12:59;;;;;;;0.47;0.47;;;29.10;49.30;;;;;;5074553;28;20020;-75
2022/07/09 12:15:25;;;;;;;0.43;0.32;;;29.50;49.00;;;;;;5074842;28;20371;-74
2022/07/09 12:17:54;;;;;;;12.45;1.98;;;29.60;48.70;;;;;;5093090;28;20020;-75
2022/07/09 12:20:23;;;;;;;0.45;0.45;;;29.50;50.80;;;;;;5093479;28;20024;-74
2022/07/09 12:22:49;;;;;;;11.27;1.60;;;29.30;48.20;;;;;;5093158;28;20024;-75
2022/07/09 12:25:16;;;;;;;0.50;0.47;;;29.80;47.80;;;;;;5092981;28;20487;-74
2022/07/09 12:27:41;;;;;;;0.13;0.13;;;30.40;47.70;;;;;;5093003;28;20024;-74
2022/07/09 12:30:08;;;;;;;0.32;0.32;;;30.30;49.30;;;;;;5092801;28;20023;-74
2022/07/09 12:32:34;;;;;;;0.22;0.22;;;30.70;47.50;;;;;;5074868;28;20439;-75
2022/07/09 12:35:00;;;;;;;0.73;0.60;;;;;;;;;;5093172;28;20452;-74
2022/07/09 12:37:26;;;;;;;0.20;0.20;;;30.70;48.00;;;;;;5093047;28;20039;-74
2022/07/09 12:39:53;;;;;;;0.32;0.32;;;30.20;45.30;;;;;;5074534;28;20024;-74
2022/07/09 12:42:20;;;;;;;0.90;0.52;;;30.20;46.00;;;;;;5092924;28;20020;-74
2022/07/09 12:44:46;;;;;;;0.45;0.45;;;30.60;49.50;;;;;;5092831;28;20024;-74
2022/07/09 12:47:12;;;;;;;0.73;0.25;;;30.50;48.50;;;;;;5092925;28;20032;-75
2022/07/09 12:49:37;;;;;;;6.22;0.47;;;30.20;48.50;;;;;;5092689;28;20021;-74